Impacts METAR Board
IDs:

KRWV - Caldwell Muni, TX, US

Updated at: 1200 UTC 16 Jul 2019
Potential Impact None Slight Moderate High
Time 16/00Z 16/01Z 16/02Z 16/03Z 16/04Z 16/05Z 16/06Z 16/07Z 16/08Z 16/09Z 16/10Z 16/11Z 16/12Z
Temp87 86 84 83 82 81 80 80 78 78 78 78 79
Dewpt77 78 78 77 76 77 77 77 76 76 76 77 77
Altim29.88 29.89 29.89 29.90 29.93 29.95 29.96 29.97 29.96 29.97 29.97 29.99 30.00
VIS10 10 10 10 10 10 10 10 10 10 10 10 10
CIG65 -- -- -- -- -- -- 15 -- 13 11 9 9
CoverBKNSCTCLRCLRCLRCLRCLRBKNCLRBKNOVCOVCOVC
FltCatVFRVFRVFRVFRVFRVFRVFRMVFRVFRMVFRMVFRIFRIFR
WX--------------------------
WDir90100130130160170190190190190190190190
WSpd5 4 5 5 6 8 9 7 7 8 7 6 7
WGst-- -- -- -- -- -- -- -- -- -- -- -- --
Raw hourly METARs
KRWV 152355Z AUTO 09005KT 10SM BKN065 BKN070 30/25 A2988 RMK AO2 T03030248 10351 20303 403510236
KRWV 160055Z AUTO 10004KT 10SM SCT050 SCT060 SCT090 30/25 A2989 RMK AO2 T02980254
KRWV 160155Z AUTO 13005KT 10SM CLR 29/26 A2989 RMK AO2 T02900256
KRWV 160255Z AUTO 13005KT 10SM CLR 28/25 A2990 RMK AO2 T02830250
KRWV 160355Z AUTO 16006KT 10SM CLR 28/25 A2993 RMK AO2 T02780245
KRWV 160455Z AUTO 17008KT 10SM CLR 27/25 A2995 RMK AO2 T02730248
KRWV 160555Z AUTO 19009KT 10SM CLR 27/25 A2996 RMK AO2 T02680248 10303 20268
KRWV 160655Z AUTO 19007KT 10SM BKN015 26/25 A2997 RMK AO2 T02640248
KRWV 160755Z AUTO 19007KT 10SM CLR 26/25 A2996 RMK AO2 T02580247
KRWV 160855Z AUTO 19008KT 10SM BKN013 26/25 A2997 RMK AO2 T02580247
KRWV 160955Z AUTO 19007KT 10SM OVC011 26/25 A2997 RMK AO2 T02570247
KRWV 161055Z AUTO 19006KT 10SM OVC009 26/25 A2999 RMK AO2 T02560248
KRWV 161155Z AUTO 19007KT 10SM BKN009 OVC016 26/25 A3000 RMK AO2 T02600250 10269 20255